Terminal Aerodrome Forecast
Issued by NWS

Home | Current Version | Previous Version | Text Only | Print | Product List | Glossary On
Versions: 1 2 3 4 5 6 7 8 9 10 11 12 13 14 15 16 17 18 19
000
FTUS41 KBOX 201428 AAA
TAFHYA
TAF AMD
KHYA 201428Z 2014/2112 05014G23KT P6SM SCT250
     FM202000 08008KT P6SM FEW250
     FM210800 13004KT P6SM FEW250=

USA.gov is the U.S. government's official web portal to all federal, state and local government web resources and services.